createdAt,value
2019-03-01T00:00:29.654Z,25.80
2019-03-01T00:02:58.092Z,25.90
2019-03-01T00:06:01.007Z,25.90
2019-03-01T00:08:48.696Z,26.10
2019-03-01T00:11:25.849Z,26.30
2019-03-01T00:14:09.000Z,26.50
2019-03-01T00:17:00.018Z,26.60
2019-03-01T00:19:43.377Z,26.60
2019-03-01T00:22:43.057Z,26.70
2019-03-01T00:25:35.341Z,26.90
2019-03-01T00:28:15.413Z,26.80
2019-03-01T00:31:03.372Z,26.80
2019-03-01T00:33:43.590Z,27.10
2019-03-01T00:36:31.383Z,27.30
2019-03-01T00:39:14.762Z,27.60
2019-03-01T00:41:57.888Z,27.90
2019-03-01T00:44:31.822Z,28.50
2019-03-01T00:47:00.237Z,28.70
2019-03-01T00:49:30.395Z,29.60
2019-03-01T00:51:58.822Z,32.20
2019-03-01T00:54:27.261Z,34.70
2019-03-01T00:56:55.674Z,37.60
2019-03-01T00:59:24.127Z,43.40
2019-03-01T01:01:52.537Z,48.80
2019-03-01T01:04:21.054Z,50.40
2019-03-01T01:06:49.474Z,58.10
2019-03-01T01:09:17.901Z,60.10
2019-03-01T01:11:46.331Z,60.30
2019-03-01T01:14:14.773Z,61.30
2019-03-01T01:16:43.220Z,62.90
2019-03-01T01:19:11.631Z,63.50
2019-03-01T01:21:40.072Z,64.70
2019-03-01T01:24:08.547Z,65.60
2019-03-01T01:26:36.997Z,65.70
2019-03-01T01:29:05.488Z,66.00
2019-03-01T01:31:33.994Z,66.90
2019-03-01T01:34:02.451Z,67.10
2019-03-01T01:36:30.868Z,68.50
2019-03-01T01:38:59.311Z,69.20
2019-03-01T01:41:27.760Z,69.10
2019-03-01T01:43:56.195Z,69.80
2019-03-01T01:46:24.615Z,70.30
2019-03-01T01:48:53.030Z,70.90
2019-03-01T01:51:21.463Z,71.80
2019-03-01T01:53:49.901Z,72.60
2019-03-01T01:56:18.323Z,73.20
2019-03-01T01:58:46.749Z,74.20
2019-03-01T02:01:15.180Z,74.20
2019-03-01T02:03:43.596Z,75.30
2019-03-01T02:06:12.034Z,75.80
2019-03-01T02:08:40.468Z,75.30
2019-03-01T02:11:08.899Z,75.60
2019-03-01T02:13:37.317Z,76.10
2019-03-01T02:16:05.746Z,76.40
2019-03-01T02:18:34.165Z,76.50
2019-03-01T02:21:02.611Z,76.30
2019-03-01T02:23:31.035Z,76.50
2019-03-01T02:25:59.474Z,76.60
2019-03-01T02:28:27.946Z,87.50
2019-03-01T02:31:02.725Z,88.40
2019-03-01T02:33:31.163Z,88.50
2019-03-01T02:35:59.577Z,89.30
2019-03-01T02:38:28.011Z,89.50
2019-03-01T02:40:56.429Z,90.10
2019-03-01T02:43:24.870Z,90.20
2019-03-01T02:45:53.303Z,90.00
2019-03-01T02:48:21.732Z,90.00
2019-03-01T02:50:50.144Z,90.00
2019-03-01T02:53:18.583Z,89.90
2019-03-01T02:55:47.001Z,90.20
2019-03-01T02:58:15.502Z,90.10
2019-03-01T03:00:43.929Z,79.80
2019-03-01T03:03:12.362Z,78.60
2019-03-01T03:05:54.252Z,77.60
2019-03-01T03:08:22.752Z,77.10
2019-03-01T03:10:51.168Z,76.80
2019-03-01T03:13:19.603Z,76.20
2019-03-01T03:15:49.655Z,75.50
2019-03-01T03:18:18.166Z,74.90
2019-03-01T03:20:46.582Z,74.60
2019-03-01T03:23:15.021Z,74.20
2019-03-01T03:25:43.435Z,73.70
2019-03-01T03:28:11.906Z,73.80
2019-03-01T03:30:40.393Z,73.90
2019-03-01T03:33:08.896Z,74.70
2019-03-01T03:35:37.379Z,75.00
2019-03-01T03:38:05.816Z,75.00
2019-03-01T03:40:34.319Z,74.90
2019-03-01T03:43:02.739Z,74.90
2019-03-01T03:45:31.168Z,75.10
2019-03-01T03:48:01.127Z,75.60
2019-03-01T03:50:29.561Z,75.80
2019-03-01T03:52:58.148Z,75.30
2019-03-01T03:55:26.782Z,74.90
2019-03-01T03:57:55.432Z,74.00
2019-03-01T04:00:26.656Z,73.20
2019-03-01T04:02:55.219Z,73.00
2019-03-01T04:05:23.643Z,72.00
2019-03-01T04:07:52.067Z,72.10
2019-03-01T04:10:20.520Z,71.90
2019-03-01T04:12:48.913Z,72.60
2019-03-01T04:15:17.867Z,73.00
2019-03-01T04:17:46.278Z,73.60
2019-03-01T04:20:17.784Z,73.80
2019-03-01T04:22:46.527Z,75.10
2019-03-01T04:25:15.033Z,75.00
2019-03-01T04:27:43.707Z,74.70
2019-03-01T04:30:15.267Z,74.50
2019-03-01T04:32:43.775Z,73.10
2019-03-01T04:35:13.127Z,67.60
2019-03-01T04:37:41.567Z,76.50
2019-03-01T04:40:12.117Z,77.80
2019-03-01T04:42:40.561Z,77.80
2019-03-01T04:45:11.174Z,78.60
2019-03-01T04:47:39.780Z,79.60
2019-03-01T04:50:10.302Z,79.70
2019-03-01T04:52:38.894Z,80.90
2019-03-01T04:55:12.587Z,81.70
2019-03-01T04:57:41.099Z,82.60
2019-03-01T05:00:12.516Z,83.10
2019-03-01T05:02:41.014Z,83.90
2019-03-01T05:05:09.570Z,84.10
2019-03-01T05:07:38.074Z,84.40
2019-03-01T05:10:09.433Z,84.60
2019-03-01T05:12:37.867Z,84.90
2019-03-01T05:15:09.482Z,85.60
2019-03-01T05:17:37.934Z,86.10
2019-03-01T05:20:07.311Z,85.40
2019-03-01T05:22:35.766Z,85.50
2019-03-01T05:25:06.324Z,86.00
2019-03-01T05:27:34.771Z,85.20
2019-03-01T05:30:04.163Z,84.00
2019-03-01T05:32:32.575Z,83.70
2019-03-01T05:35:01.014Z,84.20
2019-03-01T05:37:29.434Z,84.80
2019-03-01T05:39:57.946Z,85.70
2019-03-01T05:42:26.363Z,85.50
2019-03-01T05:44:56.946Z,85.40
2019-03-01T05:47:25.368Z,85.80
2019-03-01T05:49:53.792Z,86.00
2019-03-01T05:52:22.218Z,85.90
2019-03-01T05:54:50.658Z,85.80
2019-03-01T05:57:19.076Z,86.40
2019-03-01T05:59:47.516Z,86.90
2019-03-01T06:02:39.943Z,87.10
2019-03-01T06:05:11.523Z,87.60
2019-03-01T06:07:51.694Z,87.40
2019-03-01T06:10:31.827Z,87.70
2019-03-01T06:13:14.728Z,88.10
2019-03-01T06:16:00.859Z,88.80
2019-03-01T06:18:41.355Z,89.60
2019-03-01T06:21:36.972Z,89.90
2019-03-01T06:24:12.223Z,89.60
2019-03-01T06:26:46.438Z,90.00
2019-03-01T06:29:23.750Z,90.30
2019-03-01T06:31:57.878Z,90.40
2019-03-01T06:34:35.251Z,90.50
2019-03-01T06:37:12.339Z,90.30
2019-03-01T06:40:13.718Z,90.30
2019-03-01T06:42:59.838Z,90.30
2019-03-01T06:45:31.335Z,90.30
2019-03-01T06:47:59.784Z,90.40
2019-03-01T06:50:35.564Z,90.50
2019-03-01T06:53:05.542Z,90.50
2019-03-01T06:55:38.657Z,90.60
2019-03-01T06:58:09.518Z,90.70
2019-03-01T07:00:39.583Z,90.80
2019-03-01T07:03:08.008Z,90.90
2019-03-01T07:05:36.426Z,90.90
2019-03-01T07:08:04.932Z,90.90
2019-03-01T07:10:33.350Z,91.00
2019-03-01T07:13:01.798Z,91.10
2019-03-01T07:15:33.249Z,91.10
2019-03-01T07:18:01.763Z,91.20
2019-03-01T07:20:30.176Z,91.20
2019-03-01T07:22:58.588Z,91.10
2019-03-01T07:25:27.032Z,90.90
2019-03-01T07:27:55.467Z,89.40
2019-03-01T07:30:23.978Z,82.20
2019-03-01T07:32:52.391Z,77.80
2019-03-01T07:35:20.821Z,77.60
2019-03-01T07:37:49.239Z,77.50
2019-03-01T07:40:17.702Z,78.70
2019-03-01T07:42:46.140Z,79.70
2019-03-01T07:45:14.932Z,80.00
2019-03-01T07:47:43.346Z,81.70
2019-03-01T07:50:14.801Z,82.30
2019-03-01T07:52:43.375Z,82.40
2019-03-01T07:55:12.247Z,82.80
2019-03-01T07:57:40.663Z,83.60
2019-03-01T08:00:15.918Z,83.80
2019-03-01T08:02:45.692Z,83.60
2019-03-01T08:05:16.433Z,83.50
2019-03-01T08:07:55.421Z,84.10
2019-03-01T08:10:20.847Z,85.70
2019-03-01T08:12:47.347Z,86.00
2019-03-01T08:15:16.604Z,85.70
2019-03-01T08:17:45.131Z,86.30
2019-03-01T08:20:15.358Z,87.00
2019-03-01T08:22:48.722Z,85.70
2019-03-01T08:25:14.179Z,85.50
2019-03-01T08:27:46.250Z,85.40
2019-03-01T08:30:15.681Z,85.80
2019-03-01T08:32:44.262Z,85.50
2019-03-01T08:35:17.240Z,85.20
2019-03-01T08:37:45.686Z,85.90
2019-03-01T08:40:18.842Z,85.00
2019-03-01T08:42:47.282Z,84.30
2019-03-01T08:45:17.911Z,84.90
2019-03-01T08:47:48.510Z,85.20
2019-03-01T08:50:17.235Z,84.80
2019-03-01T08:52:46.324Z,85.80
2019-03-01T08:55:19.394Z,86.70
2019-03-01T08:57:49.481Z,84.60
2019-03-01T09:00:28.159Z,82.30
2019-03-01T09:02:59.532Z,81.20
2019-03-01T09:05:28.021Z,81.20
2019-03-01T09:07:56.447Z,81.80
2019-03-01T09:10:24.889Z,83.10
2019-03-01T09:12:53.330Z,81.60
2019-03-01T09:15:21.772Z,79.30
2019-03-01T09:17:50.189Z,75.10
2019-03-01T09:20:19.145Z,76.20
2019-03-01T09:22:47.683Z,72.50
2019-03-01T09:25:16.176Z,73.70
2019-03-01T09:27:44.624Z,74.30
2019-03-01T09:30:15.967Z,74.40
2019-03-01T09:32:44.467Z,75.30
2019-03-01T09:35:25.379Z,74.50
2019-03-01T09:37:53.880Z,74.90
2019-03-01T09:40:25.469Z,74.70
2019-03-01T09:42:52.548Z,64.70
2019-03-01T09:45:21.182Z,67.50
2019-03-01T09:47:49.627Z,63.90
2019-03-01T09:50:18.050Z,62.70
2019-03-01T09:52:46.840Z,64.50
2019-03-01T09:55:15.407Z,65.50
2019-03-01T09:57:43.920Z,65.80
2019-03-01T10:00:27.419Z,64.20
2019-03-01T10:02:55.820Z,63.70
2019-03-01T10:05:24.343Z,65.50
2019-03-01T10:07:52.769Z,66.50
2019-03-01T10:10:29.458Z,63.30
2019-03-01T10:12:57.931Z,65.20
2019-03-01T10:15:26.380Z,64.60
2019-03-01T10:17:54.799Z,65.30
2019-03-01T10:20:23.244Z,64.40
2019-03-01T10:22:51.695Z,64.40
2019-03-01T10:25:21.010Z,64.80
2019-03-01T10:27:49.428Z,63.70
2019-03-01T10:30:20.377Z,62.30
2019-03-01T10:32:48.931Z,63.90
2019-03-01T10:35:17.448Z,65.30
2019-03-01T10:37:46.004Z,64.90
2019-03-01T10:40:17.045Z,65.40
2019-03-01T10:42:45.536Z,63.40
2019-03-01T10:45:15.994Z,64.90
2019-03-01T10:47:44.447Z,66.00
2019-03-01T10:50:13.419Z,64.90
2019-03-01T10:52:41.850Z,65.30
2019-03-01T10:55:13.245Z,65.90
2019-03-01T10:57:41.804Z,68.30
2019-03-01T11:00:15.728Z,68.80
2019-03-01T11:02:44.415Z,65.50
2019-03-01T11:05:12.956Z,64.20
2019-03-01T11:07:41.403Z,64.00
2019-03-01T11:10:12.768Z,65.20
2019-03-01T11:12:41.205Z,65.50
2019-03-01T11:15:11.651Z,64.40
2019-03-01T11:17:40.091Z,65.70
2019-03-01T11:20:11.354Z,68.50
2019-03-01T11:22:39.870Z,66.90
2019-03-01T11:25:11.090Z,68.80
2019-03-01T11:27:39.795Z,69.60
2019-03-01T11:30:13.722Z,71.40
2019-03-01T11:32:42.243Z,72.70
2019-03-01T11:35:11.008Z,72.80
2019-03-01T11:37:39.506Z,72.80
2019-03-01T11:40:11.002Z,69.50
2019-03-01T11:42:39.448Z,68.00
2019-03-01T11:45:10.271Z,66.60
2019-03-01T11:47:38.856Z,66.30
2019-03-01T11:50:13.151Z,68.60
2019-03-01T11:52:41.751Z,69.80
2019-03-01T11:55:10.475Z,70.70
2019-03-01T11:57:38.912Z,71.30
2019-03-01T12:00:10.713Z,71.70
2019-03-01T12:02:39.205Z,70.60
2019-03-01T12:05:09.982Z,72.80
2019-03-01T12:07:38.465Z,70.40
2019-03-01T12:10:10.009Z,69.80
2019-03-01T12:12:38.423Z,67.70
2019-03-01T12:15:08.616Z,68.50
2019-03-01T12:17:37.040Z,68.70
2019-03-01T12:20:13.686Z,70.00
2019-03-01T12:22:42.163Z,70.00
2019-03-01T12:25:11.342Z,70.60
2019-03-01T12:27:39.832Z,70.00
2019-03-01T12:30:13.907Z,71.30
2019-03-01T12:32:42.394Z,70.10
2019-03-01T12:35:11.191Z,71.00
2019-03-01T12:37:39.631Z,72.10
2019-03-01T12:40:13.998Z,73.70
2019-03-01T12:42:42.477Z,73.30
2019-03-01T12:45:15.487Z,73.00
2019-03-01T12:47:44.247Z,70.80
2019-03-01T12:50:16.072Z,72.70
2019-03-01T12:52:46.045Z,71.50
2019-03-01T12:55:17.282Z,73.30
2019-03-01T12:57:45.702Z,73.10
2019-03-01T13:00:25.974Z,72.10
2019-03-01T13:02:54.387Z,69.20
2019-03-01T13:05:25.681Z,69.70
2019-03-01T13:07:54.464Z,69.70
2019-03-01T13:10:28.397Z,71.20
2019-03-01T13:12:58.831Z,71.80
2019-03-01T13:15:26.978Z,72.40
2019-03-01T13:17:55.487Z,72.80
2019-03-01T13:20:23.921Z,74.40
2019-03-01T13:22:52.434Z,74.40
2019-03-01T13:25:20.930Z,73.80
2019-03-01T13:27:52.595Z,73.00
2019-03-01T13:30:22.598Z,69.70
2019-03-01T13:32:51.127Z,66.80
2019-03-01T13:35:22.362Z,69.00
2019-03-01T13:37:52.011Z,70.40
2019-03-01T13:40:24.411Z,70.30
2019-03-01T13:42:52.386Z,71.30
2019-03-01T13:45:26.979Z,68.90
2019-03-01T13:47:55.535Z,69.00
2019-03-01T13:50:24.034Z,71.00
2019-03-01T13:52:52.463Z,70.10
2019-03-01T13:55:23.666Z,67.80
2019-03-01T13:57:51.543Z,68.30
2019-03-01T14:00:21.534Z,68.40
2019-03-01T14:02:50.519Z,69.30
2019-03-01T14:05:19.607Z,67.00
2019-03-01T14:07:48.775Z,67.80
2019-03-01T14:10:19.730Z,66.40
2019-03-01T14:12:48.170Z,66.30
2019-03-01T14:15:17.533Z,65.70
2019-03-01T14:17:46.054Z,64.60
2019-03-01T14:20:20.603Z,63.00
2019-03-01T14:22:47.923Z,63.20
2019-03-01T14:25:16.837Z,65.10
2019-03-01T14:27:45.382Z,65.20
2019-03-01T14:30:16.543Z,64.50
2019-03-01T14:32:44.984Z,64.70
2019-03-01T14:35:14.153Z,65.80
2019-03-01T14:37:42.661Z,65.10
2019-03-01T14:40:19.024Z,64.20
2019-03-01T14:42:48.826Z,65.50
2019-03-01T14:45:28.316Z,65.90
2019-03-01T14:47:56.806Z,67.30
2019-03-01T14:50:29.819Z,66.90
2019-03-01T14:52:58.889Z,68.10
2019-03-01T14:55:33.450Z,68.40
2019-03-01T14:58:08.464Z,66.70
2019-03-01T15:00:40.007Z,65.40
2019-03-01T15:03:30.714Z,66.50
2019-03-01T15:05:59.352Z,67.50
2019-03-01T15:08:27.829Z,67.30
2019-03-01T15:10:57.433Z,66.40
2019-03-01T15:13:27.809Z,67.60
2019-03-01T15:15:56.442Z,66.70
2019-03-01T15:18:25.177Z,67.50
2019-03-01T15:20:56.215Z,66.40
2019-03-01T15:23:24.843Z,67.80
2019-03-01T15:25:53.404Z,67.80
2019-03-01T15:28:22.363Z,67.50
2019-03-01T15:30:50.846Z,67.40
2019-03-01T15:33:19.303Z,66.80
2019-03-01T15:35:47.796Z,66.90
2019-03-01T15:38:16.278Z,67.40
2019-03-01T15:40:44.717Z,66.90
2019-03-01T15:43:15.105Z,66.90
2019-03-01T15:45:43.299Z,66.40
2019-03-01T15:48:11.710Z,65.40
2019-03-01T15:50:40.160Z,65.90
2019-03-01T15:53:08.907Z,65.60
2019-03-01T15:55:37.434Z,65.80
2019-03-01T15:58:05.853Z,66.30
2019-03-01T16:00:34.275Z,65.90
2019-03-01T16:03:02.740Z,65.40
2019-03-01T16:05:34.305Z,65.80
2019-03-01T16:08:01.328Z,65.50
2019-03-01T16:10:32.836Z,66.20
2019-03-01T16:12:59.918Z,66.80
2019-03-01T16:15:29.980Z,66.30
2019-03-01T16:18:01.013Z,67.10
2019-03-01T16:20:29.260Z,66.60
2019-03-01T16:22:57.856Z,67.20
2019-03-01T16:25:26.279Z,67.40
2019-03-01T16:27:55.145Z,67.50
2019-03-01T16:30:23.662Z,67.50
2019-03-01T16:32:52.105Z,67.50
2019-03-01T16:35:20.938Z,68.10
2019-03-01T16:37:51.027Z,68.10
2019-03-01T16:40:19.607Z,68.30
2019-03-01T16:42:52.983Z,69.00
2019-03-01T16:45:21.186Z,68.30
2019-03-01T16:47:48.871Z,68.40
2019-03-01T16:50:18.163Z,68.40
2019-03-01T16:52:46.686Z,68.60
2019-03-01T16:55:28.816Z,68.90
2019-03-01T16:58:06.182Z,79.30
2019-03-01T17:00:27.800Z,80.10
2019-03-01T17:02:59.324Z,80.60
2019-03-01T17:05:27.752Z,80.90
2019-03-01T17:07:56.182Z,81.60
2019-03-01T17:10:26.386Z,82.00
2019-03-01T17:12:54.966Z,82.30
2019-03-01T17:15:24.462Z,82.80
2019-03-01T17:17:53.006Z,82.90
2019-03-01T17:20:21.523Z,82.50
2019-03-01T17:22:50.082Z,82.30
2019-03-01T17:25:19.518Z,82.50
2019-03-01T17:27:49.527Z,83.20
2019-03-01T17:30:25.406Z,83.10
2019-03-01T17:32:53.927Z,83.00
2019-03-01T17:35:22.375Z,83.20
2019-03-01T17:37:50.885Z,83.60
2019-03-01T17:40:19.663Z,83.20
2019-03-01T17:42:48.548Z,82.80
2019-03-01T17:45:23.336Z,82.90
2019-03-01T17:47:51.995Z,82.80
2019-03-01T17:50:20.533Z,82.30
2019-03-01T17:52:48.959Z,81.70
2019-03-01T17:55:24.289Z,79.60
2019-03-01T17:57:52.804Z,68.20
2019-03-01T18:00:39.198Z,67.10
2019-03-01T18:03:07.619Z,75.80
2019-03-01T18:05:36.931Z,76.20
2019-03-01T18:08:06.303Z,76.80
2019-03-01T18:10:34.820Z,77.40
2019-03-01T18:13:03.306Z,78.40
2019-03-01T18:15:31.902Z,79.70
2019-03-01T18:18:00.375Z,80.90
2019-03-01T18:20:28.818Z,81.90
2019-03-01T18:22:59.323Z,82.30
2019-03-01T18:25:27.421Z,83.50
2019-03-01T18:27:55.957Z,84.10
2019-03-01T18:30:32.319Z,84.80
2019-03-01T18:33:00.811Z,85.30
2019-03-01T18:35:29.307Z,85.70
2019-03-01T18:37:57.772Z,85.60
2019-03-01T18:40:26.188Z,85.40
2019-03-01T18:42:54.651Z,85.40
2019-03-01T18:45:24.405Z,85.70
2019-03-01T18:47:52.934Z,86.20
2019-03-01T18:50:38.498Z,86.50
2019-03-01T18:53:06.966Z,86.50
2019-03-01T18:55:35.406Z,86.80
2019-03-01T18:58:04.106Z,87.00
2019-03-01T19:00:47.263Z,87.40
2019-03-01T19:03:15.730Z,87.50
2019-03-01T19:05:44.138Z,86.60
2019-03-01T19:08:13.351Z,85.20
2019-03-01T19:10:41.782Z,84.10
2019-03-01T19:13:10.222Z,83.60
2019-03-01T19:15:38.726Z,83.80
2019-03-01T19:18:07.139Z,84.20
2019-03-01T19:20:42.357Z,84.70
2019-03-01T19:23:10.876Z,85.60
2019-03-01T19:25:39.381Z,86.40
2019-03-01T19:28:08.819Z,86.60
2019-03-01T19:30:45.909Z,87.20
2019-03-01T19:33:13.967Z,87.80
2019-03-01T19:35:42.427Z,87.70
2019-03-01T19:38:10.870Z,87.80
2019-03-01T19:40:39.410Z,87.90
2019-03-01T19:43:10.220Z,87.90
2019-03-01T19:45:40.789Z,88.20
2019-03-01T19:48:08.162Z,87.50
2019-03-01T19:50:36.633Z,87.10
2019-03-01T19:53:05.123Z,86.90
2019-03-01T19:55:33.643Z,86.30
2019-03-01T19:58:02.093Z,86.00
2019-03-01T20:00:32.132Z,85.60
2019-03-01T20:03:00.579Z,85.30
2019-03-01T20:05:32.935Z,85.60
2019-03-01T20:08:01.588Z,85.80
2019-03-01T20:10:30.160Z,85.70
2019-03-01T20:12:58.608Z,85.10
2019-03-01T20:15:30.704Z,83.60
2019-03-01T20:17:59.264Z,82.50
2019-03-01T20:20:29.816Z,82.50
2019-03-01T20:22:58.822Z,82.60
2019-03-01T20:25:27.222Z,81.90
2019-03-01T20:27:55.682Z,82.00
2019-03-01T20:30:31.067Z,81.50
2019-03-01T20:32:59.599Z,81.30
2019-03-01T20:35:28.192Z,81.50
2019-03-01T20:38:00.215Z,82.00
2019-03-01T20:40:28.090Z,82.10
2019-03-01T20:43:01.300Z,82.40
2019-03-01T20:45:38.077Z,82.20
2019-03-01T20:48:06.595Z,82.70
2019-03-01T20:50:36.562Z,82.60
2019-03-01T20:53:05.127Z,82.10
2019-03-01T20:55:37.037Z,81.90
2019-03-01T20:58:04.358Z,82.00
2019-03-01T21:00:33.056Z,81.50
2019-03-01T21:03:01.528Z,81.30
2019-03-01T21:05:30.566Z,81.60
2019-03-01T21:07:59.281Z,81.70
2019-03-01T21:10:29.707Z,81.80
2019-03-01T21:12:58.175Z,81.50
2019-03-01T21:15:26.573Z,81.10
2019-03-01T21:17:57.121Z,80.70
2019-03-01T21:20:25.323Z,78.30
2019-03-01T21:22:53.793Z,77.70
2019-03-01T21:25:23.476Z,77.60
2019-03-01T21:27:51.934Z,77.80
2019-03-01T21:30:27.748Z,77.60
2019-03-01T21:32:56.381Z,77.70
2019-03-01T21:35:24.948Z,77.60
2019-03-01T21:37:53.724Z,77.30
2019-03-01T21:40:22.323Z,77.40
2019-03-01T21:42:52.878Z,77.60
2019-03-01T21:45:24.742Z,77.00
2019-03-01T21:47:53.347Z,77.40
2019-03-01T21:50:21.915Z,76.20
2019-03-01T21:52:50.423Z,76.60
2019-03-01T21:55:24.913Z,77.40
2019-03-01T21:57:54.037Z,76.90
2019-03-01T22:00:29.769Z,76.60
2019-03-01T22:02:56.625Z,76.70
2019-03-01T22:05:25.062Z,76.70
2019-03-01T22:07:53.523Z,76.70
2019-03-01T22:10:22.156Z,76.60
2019-03-01T22:12:50.647Z,76.60
2019-03-01T22:15:25.511Z,76.30
2019-03-01T22:17:54.788Z,75.90
2019-03-01T22:20:23.608Z,75.50
2019-03-01T22:22:52.111Z,76.10
2019-03-01T22:25:20.810Z,76.60
2019-03-01T22:27:49.371Z,76.90
2019-03-01T22:30:33.534Z,77.20
2019-03-01T22:33:01.969Z,76.70
2019-03-01T22:35:30.554Z,76.50
2019-03-01T22:38:00.948Z,76.90
2019-03-01T22:40:29.465Z,77.00
2019-03-01T22:42:58.113Z,76.30
2019-03-01T22:45:26.593Z,76.90
2019-03-01T22:47:55.100Z,76.90
2019-03-01T22:50:23.580Z,76.60
2019-03-01T22:52:52.050Z,76.80
2019-03-01T22:55:20.887Z,76.40
2019-03-01T22:57:50.094Z,76.40
2019-03-01T23:00:47.153Z,76.60
2019-03-01T23:03:18.932Z,77.20
2019-03-01T23:05:46.459Z,77.70
2019-03-01T23:08:14.939Z,77.90
2019-03-01T23:10:43.457Z,77.50
2019-03-01T23:13:11.919Z,77.50
2019-03-01T23:15:43.297Z,77.20
2019-03-01T23:18:10.570Z,76.80
2019-03-01T23:20:38.996Z,76.40
2019-03-01T23:23:07.472Z,76.30
2019-03-01T23:25:35.880Z,76.60
2019-03-01T23:28:08.236Z,77.00
2019-03-01T23:30:34.475Z,77.10
2019-03-01T23:33:02.931Z,77.40
2019-03-01T23:35:31.351Z,77.60
2019-03-01T23:37:59.798Z,77.50
2019-03-01T23:40:28.239Z,76.80
2019-03-01T23:42:57.148Z,76.70
2019-03-01T23:45:25.634Z,76.60
2019-03-01T23:47:54.080Z,76.60
2019-03-01T23:50:22.494Z,76.60
2019-03-01T23:52:50.940Z,76.60
2019-03-01T23:55:19.999Z,76.90
2019-03-01T23:57:48.544Z,77.30
